createdAt,value
2023-11-25T13:51:28.647Z,10.20
2023-11-25T13:59:34.385Z,12.25
2023-11-25T14:07:43.263Z,11.48
2023-11-25T14:15:50.924Z,14.18
2023-11-25T14:23:59.170Z,13.27
2023-11-25T14:32:04.921Z,14.10
2023-11-25T14:40:59.724Z,12.73
2023-11-25T14:49:06.429Z,8.88
2023-11-25T14:57:14.917Z,11.45
2023-11-25T15:05:20.759Z,13.45
2023-11-25T15:13:29.299Z,14.23
2023-11-25T15:21:34.946Z,16.35
2023-11-25T15:29:43.180Z,16.75
2023-11-25T15:37:49.565Z,11.70
2023-11-25T15:45:57.826Z,12.43
2023-11-25T15:54:03.481Z,13.82
2023-11-25T16:02:12.004Z,15.63
2023-11-25T16:10:20.197Z,15.05
2023-11-25T16:18:31.817Z,15.70
2023-11-25T16:26:37.446Z,16.67
2023-11-25T16:34:45.778Z,14.55
2023-11-25T16:42:52.317Z,16.33
2023-11-25T16:51:00.621Z,17.77
2023-11-25T16:59:07.799Z,21.58
2023-11-25T17:07:16.745Z,18.60
2023-11-25T17:15:22.429Z,18.20
2023-11-25T17:23:33.363Z,22.67
2023-11-25T17:31:39.087Z,21.92
2023-11-25T17:39:47.534Z,28.10
2023-11-25T17:47:53.319Z,33.60
2023-11-25T17:56:02.773Z,29.75
2023-11-25T18:04:08.966Z,30.83
2023-11-25T18:12:17.560Z,29.45
2023-11-25T18:20:23.433Z,27.20
2023-11-25T18:28:32.031Z,21.60
2023-11-25T18:36:41.141Z,16.42
2023-11-25T18:44:49.387Z,20.45
2023-11-25T18:52:55.057Z,19.70
2023-11-25T19:01:06.390Z,20.45
2023-11-25T19:09:14.429Z,28.17
2023-11-25T19:17:22.727Z,19.95
2023-11-25T19:25:28.353Z,22.23
2023-11-25T19:33:44.594Z,24.02
2023-11-25T19:41:51.714Z,22.42
2023-11-25T19:50:04.477Z,20.13
2023-11-25T19:58:11.258Z,21.13
2023-11-25T20:06:19.545Z,15.80
2023-11-25T20:14:25.214Z,18.33
2023-11-25T20:22:33.492Z,19.00
2023-11-25T20:30:39.136Z,15.25
2023-11-25T20:38:47.974Z,16.83
2023-11-25T20:46:53.735Z,16.75
2023-11-25T20:55:02.065Z,19.88
2023-11-25T21:03:08.368Z,16.45
2023-11-25T21:11:16.738Z,14.85
2023-11-25T21:19:22.501Z,16.50
2023-11-25T21:27:31.046Z,17.17
2023-11-25T21:35:36.767Z,16.38
2023-11-25T21:43:45.126Z,12.88
2023-11-25T21:51:50.789Z,15.27
2023-11-25T21:59:59.202Z,15.88
2023-11-25T22:08:05.493Z,14.38
2023-11-25T22:16:14.024Z,22.35
2023-11-25T22:24:23.603Z,19.85
2023-11-25T22:32:33.014Z,18.88
2023-11-25T22:40:38.725Z,18.35
2023-11-25T22:48:46.978Z,21.20
2023-11-25T22:56:52.591Z,18.48
2023-11-25T23:05:01.172Z,20.13
2023-11-25T23:13:07.364Z,21.33
2023-11-25T23:21:15.520Z,17.98
2023-11-25T23:29:21.257Z,16.27
2023-11-25T23:37:31.509Z,14.90
2023-11-25T23:45:37.805Z,16.73
2023-11-25T23:53:46.737Z,15.48
